Time;durP1;ratioP1;P1;durP2;ratioP2;P2;SDS_P1;SDS_P2;PMS_P1;PMS_P2;Temp;Humidity;BMP_temperature;BMP_pressure;BME280_temperature;BME280_humidity;BME280_pressure;Samples;Min_cycle;Max_cycle;Signal;HPM_P1;HPM_P2
2023/12/12 00:01:35;;;;;;;;;;;;;;;13.10;50.40;99627.13;4957238;28;98270;-65
2023/12/12 00:04:00;;;;;;;;;;;;;;;13.12;50.54;99633.00;4909153;28;98170;-65
2023/12/12 00:06:29;;;;;;;;;;;;;;;13.12;50.38;99634.91;4957542;28;127601;-69
2023/12/12 00:08:55;;;;;;;;;;;;;;;13.12;50.34;99630.31;4929564;28;98851;-65
2023/12/12 00:11:21;;;;;;;;;;;;;;;13.12;50.15;99634.91;4945696;28;116667;-65
2023/12/12 00:13:47;;;;;;;;;;;;;;;13.11;50.21;99630.63;4927063;28;98183;-69
2023/12/12 00:16:13;;;;;;;;;;;;;;;13.11;50.52;99642.25;4921806;28;128849;-65
2023/12/12 00:18:39;;;;;;;;;;;;;;;13.11;50.48;99642.25;4925671;28;129764;-69
2023/12/12 00:21:05;;;;;;;;;;;;;;;13.11;50.40;99646.84;4941071;28;127522;-65
2023/12/12 00:23:31;;;;;;;;;;;;;;;13.11;50.54;99644.94;4956983;28;98133;-70
2023/12/12 00:25:57;;;;;;;;;;;;;;;13.11;50.09;99647.66;4941465;28;98222;-69
2023/12/12 00:28:23;;;;;;;;;;;;;;;13.10;50.12;99659.59;4945279;28;98273;-65
2023/12/12 00:30:50;;;;;;;;;;;;;;;13.10;49.94;99656.88;4905375;28;97896;-65
2023/12/12 00:33:16;;;;;;;;;;;;;;;13.08;50.11;99661.78;4922284;28;98262;-65
2023/12/12 00:35:42;;;;;;;;;;;;;;;13.10;50.28;99667.72;4937424;28;98802;-65
2023/12/12 00:38:08;;;;;;;;;;;;;;;13.09;50.15;99658.00;4932339;28;108971;-70
2023/12/12 00:40:34;;;;;;;;;;;;;;;13.09;50.22;99671.53;4948828;28;114366;-65
2023/12/12 00:43:00;;;;;;;;;;;;;;;13.10;50.09;99675.81;4939749;28;112475;-66
2023/12/12 00:45:26;;;;;;;;;;;;;;;13.10;50.41;99680.44;4958940;28;98089;-65
2023/12/12 00:47:52;;;;;;;;;;;;;;;13.08;50.46;99675.31;4929375;28;128807;-65
2023/12/12 00:50:18;;;;;;;;;;;;;;;13.10;50.33;99681.22;4926764;28;104124;-70
2023/12/12 00:52:44;;;;;;;;;;;;;;;13.10;50.49;99691.25;4925169;28;98358;-70
2023/12/12 00:55:11;;;;;;;;;;;;;;;13.10;50.11;99702.88;4926733;28;99997;-65
2023/12/12 00:57:36;;;;;;;;;;;;;;;13.10;50.12;99702.88;4940915;28;99912;-65
2023/12/12 01:00:03;;;;;;;;;;;;;;;13.10;50.33;99702.88;4911366;28;101843;-66
2023/12/12 01:02:29;;;;;;;;;;;;;;;13.10;50.26;99705.59;4942318;28;98443;-70
2023/12/12 01:04:55;;;;;;;;;;;;;;;13.11;50.16;99709.88;4941318;28;130464;-66
2023/12/12 01:07:21;;;;;;;;;;;;;;;13.11;50.51;99709.09;4919042;28;99596;-70
2023/12/12 01:09:47;;;;;;;;;;;;;;;13.11;50.43;99715.28;4925034;28;127086;-65
2023/12/12 01:12:13;;;;;;;;;;;;;;;13.11;50.49;99720.72;4908192;28;117489;-66
2023/12/12 01:14:39;;;;;;;;;;;;;;;13.12;50.28;99724.22;4928664;28;99888;-65
2023/12/12 01:17:05;;;;;;;;;;;;;;;13.12;50.40;99725.00;4923160;28;112936;-66
2023/12/12 01:19:34;;;;;;;;;;;;;;;13.12;50.38;99729.63;4908967;28;129841;-69
2023/12/12 01:22:00;;;;;;;;;;;;;;;13.11;50.17;99726.13;4924253;28;98216;-65
2023/12/12 01:24:26;;;;;;;;;;;;;;;13.12;50.43;99735.84;4940136;28;98206;-65
2023/12/12 01:26:52;;;;;;;;;;;;;;;13.12;49.97;99738.53;4941142;28;127311;-70
2023/12/12 01:29:18;;;;;;;;;;;;;;;13.12;50.48;99743.16;4939473;28;98027;-70
2023/12/12 01:31:44;;;;;;;;;;;;;;;13.12;50.49;99735.84;4925734;28;98013;-66
2023/12/12 01:34:10;;;;;;;;;;;;;;;13.12;50.49;99759.38;4927353;28;98070;-65
2023/12/12 01:36:36;;;;;;;;;;;;;;;13.12;50.42;99760.19;4927404;28;116399;-69
2023/12/12 01:39:04;;;;;;;;;;;;;;;13.13;50.53;99763.72;4953450;28;98246;-66
2023/12/12 01:41:30;;;;;;;;;;;;;;;13.12;50.52;99762.88;4930488;28;98098;-65
2023/12/12 01:43:56;;;;;;;;;;;;;;;13.13;50.43;99767.22;4926762;28;98516;-69
2023/12/12 01:46:22;;;;;;;;;;;;;;;13.13;50.09;99767.22;4928463;28;130468;-70
2023/12/12 01:48:48;;;;;;;;;;;;;;;13.13;50.23;99779.94;4953616;28;112073;-66
2023/12/12 01:51:14;;;;;;;;;;;;;;;13.13;50.07;99780.75;4957530;28;98018;-69
2023/12/12 01:53:45;;;;;;;;;;;;;;;13.13;50.48;99788.88;4927745;28;98458;-66
2023/12/12 01:56:11;;;;;;;;;;;;;;;13.12;50.27;99783.75;4928904;28;99780;-69
2023/12/12 01:58:39;;;;;;;;;;;;;;;13.14;50.57;99789.66;4932317;28;98223;-66
2023/12/12 02:01:05;;;;;;;;;;;;;;;13.12;50.43;99795.34;4930064;28;99237;-65
2023/12/12 02:03:31;;;;;;;;;;;;;;;13.13;50.37;99793.47;4929324;28;105863;-65
2023/12/12 02:05:58;;;;;;;;;;;;;;;13.12;50.38;99798.06;4914343;28;98312;-70
2023/12/12 02:08:27;;;;;;;;;;;;;;;13.13;50.27;99790.78;4946891;28;98004;-69
2023/12/12 02:10:53;;;;;;;;;;;;;;;13.11;50.28;99788.34;4948250;28;97910;-70
2023/12/12 02:13:19;;;;;;;;;;;;;;;13.12;50.48;99789.16;4939627;28;98120;-65
2023/12/12 02:15:45;;;;;;;;;;;;;;;13.12;50.34;99789.16;4926153;28;128949;-66
2023/12/12 02:18:13;;;;;;;;;;;;;;;13.13;50.22;99783.47;4925922;28;99792;-65
2023/12/12 02:20:40;;;;;;;;;;;;;;;13.12;50.11;99789.94;4945574;28;98240;-69
2023/12/12 02:23:06;;;;;;;;;;;;;;;13.10;50.41;99797.56;4942662;28;99951;-65
2023/12/12 02:25:32;;;;;;;;;;;;;;;13.11;50.29;99799.19;4959737;28;99550;-65
2023/12/12 02:27:58;;;;;;;;;;;;;;;13.11;50.04;99798.38;4960893;28;98278;-69
2023/12/12 02:30:24;;;;;;;;;;;;;;;13.11;50.52;99782.94;4946350;28;99022;-65
2023/12/12 02:32:50;;;;;;;;;;;;;;;13.11;50.28;99787.56;4928818;28;116200;-65
2023/12/12 02:35:16;;;;;;;;;;;;;;;13.11;50.14;99801.09;4942928;28;127299;-65
2023/12/12 02:37:42;;;;;;;;;;;;;;;13.11;50.49;99803.78;4947451;28;125556;-69
2023/12/12 02:40:09;;;;;;;;;;;;;;;13.10;50.43;99807.59;4942228;28;98299;-65
2023/12/12 02:42:35;;;;;;;;;;;;;;;13.10;50.11;99810.31;4927665;28;98176;-69
2023/12/12 02:45:01;;;;;;;;;;;;;;;13.09;50.06;99806.81;4946507;28;99291;-69
2023/12/12 02:47:27;;;;;;;;;;;;;;;13.09;50.34;99811.41;4958152;28;98009;-70
2023/12/12 02:49:53;;;;;;;;;;;;;;;13.09;50.03;99814.13;4945471;28;97975;-70
2023/12/12 02:52:19;;;;;;;;;;;;;;;13.09;50.46;99819.53;4925680;28;97894;-66
2023/12/12 02:54:45;;;;;;;;;;;;;;;13.09;50.11;99827.66;4946702;28;97878;-70
2023/12/12 02:57:11;;;;;;;;;;;;;;;13.08;50.33;99826.81;4928680;28;98070;-69
2023/12/12 02:59:37;;;;;;;;;;;;;;;13.08;50.12;99829.53;4945927;28;98121;-66
2023/12/12 03:02:03;;;;;;;;;;;;;;;13.08;50.14;99839.56;4939799;28;111488;-69
2023/12/12 03:04:29;;;;;;;;;;;;;;;13.07;50.22;99840.66;4931181;28;102959;-66
2023/12/12 03:06:55;;;;;;;;;;;;;;;13.07;50.15;99837.97;4930599;28;124910;-69
2023/12/12 03:09:21;;;;;;;;;;;;;;;13.07;50.40;99846.06;4944693;28;98167;-70
2023/12/12 03:11:47;;;;;;;;;;;;;;;13.06;50.19;99847.97;4945544;28;108278;-69
2023/12/12 03:14:13;;;;;;;;;;;;;;;13.05;50.44;99846.38;4939304;28;98482;-70
2023/12/12 03:16:39;;;;;;;;;;;;;;;13.05;50.38;99840.97;4924873;28;103555;-69
2023/12/12 03:19:05;;;;;;;;;;;;;;;13.04;50.56;99844.75;4925265;28;116158;-70
2023/12/12 03:21:31;;;;;;;;;;;;;;;13.06;50.25;99847.19;4958821;28;98684;-69
2023/12/12 03:23:58;;;;;;;;;;;;;;;13.05;50.44;99846.38;4927618;28;100322;-69
2023/12/12 03:26:26;;;;;;;;;;;;;;;13.05;50.29;99843.69;4911697;28;106821;-70
2023/12/12 03:28:52;;;;;;;;;;;;;;;13.03;50.19;99841.25;4928044;28;98316;-66
2023/12/12 03:31:18;;;;;;;;;;;;;;;13.03;50.38;99841.25;4925376;28;126020;-65
2023/12/12 03:33:44;;;;;;;;;;;;;;;13.03;50.26;99845.88;4948118;28;129874;-66
2023/12/12 03:36:10;;;;;;;;;;;;;;;13.03;50.41;99849.38;4948927;28;121384;-65
2023/12/12 03:38:36;;;;;;;;;;;;;;;13.02;50.12;99841.56;4927080;28;98663;-65
2023/12/12 03:41:02;;;;;;;;;;;;;;;13.02;50.22;99828.84;4926486;28;99614;-69
2023/12/12 03:43:28;;;;;;;;;;;;;;;13.02;50.40;99839.66;4943047;28;98051;-69
2023/12/12 03:45:54;;;;;;;;;;;;;;;13.02;50.35;99836.94;4926012;28;98152;-70
2023/12/12 03:48:20;;;;;;;;;;;;;;;13.02;50.17;99833.44;4925289;28;98380;-70
2023/12/12 03:50:49;;;;;;;;;;;;;;;13.01;50.12;99842.66;4922238;28;99841;-70
2023/12/12 03:53:15;;;;;;;;;;;;;;;13.00;50.06;99839.13;4943655;28;98419;-65
2023/12/12 03:55:41;;;;;;;;;;;;;;;13.00;50.58;99838.34;4942446;28;98069;-69
2023/12/12 03:58:07;;;;;;;;;;;;;;;12.98;50.07;99841.34;4927007;28;103140;-66
2023/12/12 04:00:33;;;;;;;;;;;;;;;12.98;50.42;99840.56;4925451;28;112988;-65
2023/12/12 04:02:59;;;;;;;;;;;;;;;12.97;49.96;99838.97;4946387;28;98595;-69
2023/12/12 04:05:25;;;;;;;;;;;;;;;12.97;50.31;99837.06;4928734;28;129586;-65
2023/12/12 04:07:51;;;;;;;;;;;;;;;12.97;50.30;99838.97;4930914;28;98313;-69
2023/12/12 04:10:18;;;;;;;;;;;;;;;12.95;50.50;99833.81;4945368;28;103282;-66
2023/12/12 04:12:44;;;;;;;;;;;;;;;12.95;50.10;99831.13;4909589;28;98601;-65
2023/12/12 04:15:10;;;;;;;;;;;;;;;12.94;50.45;99834.94;4925083;28;98641;-66
2023/12/12 04:17:36;;;;;;;;;;;;;;;12.94;50.31;99831.44;4930259;28;98177;-66
2023/12/12 04:20:02;;;;;;;;;;;;;;;12.93;50.40;99843.31;4907653;28;131085;-65
2023/12/12 04:22:28;;;;;;;;;;;;;;;12.94;50.53;99842.25;4942565;28;99415;-66
2023/12/12 04:24:55;;;;;;;;;;;;;;;12.93;50.33;99841.44;4945027;28;98933;-65
2023/12/12 04:27:21;;;;;;;;;;;;;;;12.94;50.36;99839.53;4927894;28;116246;-65
2023/12/12 04:29:47;;;;;;;;;;;;;;;12.94;50.05;99842.25;4955187;28;98473;-66
2023/12/12 04:32:15;;;;;;;;;;;;;;;12.94;50.10;99842.25;4942151;28;98036;-65
2023/12/12 04:34:41;;;;;;;;;;;;;;;12.94;50.45;99844.97;4925920;28;99809;-66
2023/12/12 04:37:07;;;;;;;;;;;;;;;12.94;50.45;99844.97;4945913;28;97960;-69
2023/12/12 04:39:34;;;;;;;;;;;;;;;12.94;50.41;99851.16;4925073;28;127842;-69
2023/12/12 04:42:00;;;;;;;;;;;;;;;12.94;50.56;99853.06;4926005;28;98060;-69
2023/12/12 04:44:26;;;;;;;;;;;;;;;12.93;50.23;99849.56;4944732;28;99724;-66
2023/12/12 04:46:52;;;;;;;;;;;;;;;12.95;50.26;99862.78;4938743;28;98434;-69
2023/12/12 04:49:20;;;;;;;;;;;;;;;12.94;50.07;99853.88;4921562;28;129801;-69
2023/12/12 04:51:46;;;;;;;;;;;;;;;12.94;50.23;99856.56;4944878;28;97978;-69
2023/12/12 04:54:12;;;;;;;;;;;;;;;12.94;50.17;99856.56;4942310;28;99164;-66
2023/12/12 04:56:38;;;;;;;;;;;;;;;12.95;50.16;99858.16;4938165;28;103905;-65
2023/12/12 04:59:04;;;;;;;;;;;;;;;12.94;50.21;99856.56;4930941;28;99567;-65
2023/12/12 05:01:31;;;;;;;;;;;;;;;12.94;50.45;99856.56;4931135;28;99083;-69
2023/12/12 05:03:57;;;;;;;;;;;;;;;12.95;50.29;99857.38;4926702;28;98393;-66
2023/12/12 05:06:23;;;;;;;;;;;;;;;12.93;50.37;99860.38;4908763;28;108733;-70
2023/12/12 05:08:49;;;;;;;;;;;;;;;12.94;50.41;99855.78;4921591;28;125755;-68
2023/12/12 05:11:15;;;;;;;;;;;;;;;12.93;50.03;99854.97;4941383;28;97867;-65
2023/12/12 05:13:41;;;;;;;;;;;;;;;12.94;50.45;99853.06;4928673;28;104248;-65
2023/12/12 05:16:10;;;;;;;;;;;;;;;12.94;50.10;99853.88;4924589;28;98642;-69
2023/12/12 05:18:36;;;;;;;;;;;;;;;12.93;50.16;99848.75;4924802;28;99412;-71
2023/12/12 05:21:02;;;;;;;;;;;;;;;12.94;50.08;99853.06;4940723;28;98118;-69
2023/12/12 05:23:29;;;;;;;;;;;;;;;12.94;50.08;99856.56;4956451;28;118081;-66
2023/12/12 05:25:54;;;;;;;;;;;;;;;12.94;50.06;99863.88;4908687;28;97994;-69
2023/12/12 05:28:21;;;;;;;;;;;;;;;12.94;50.03;99859.28;4904309;28;105445;-71
2023/12/12 05:30:47;;;;;;;;;;;;;;;12.94;50.45;99861.19;4930206;28;98347;-69
2023/12/12 05:33:13;;;;;;;;;;;;;;;12.93;50.11;99868.50;4925877;28;97964;-66
2023/12/12 05:35:39;;;;;;;;;;;;;;;12.95;50.13;99876.31;4960628;28;98034;-66
2023/12/12 05:38:06;;;;;;;;;;;;;;;12.94;50.47;99872.81;4926193;28;98328;-70
2023/12/12 05:40:33;;;;;;;;;;;;;;;12.93;50.42;99871.22;4929824;28;98663;-65
2023/12/12 05:42:58;;;;;;;;;;;;;;;12.94;50.33;99882.81;4924927;28;98049;-69
2023/12/12 05:45:25;;;;;;;;;;;;;;;12.94;50.13;99885.53;4943395;28;109518;-66
2023/12/12 05:47:50;;;;;;;;;;;;;;;12.94;50.17;99890.94;4939761;28;131393;-65
2023/12/12 05:50:16;;;;;;;;;;;;;;;12.93;50.22;99887.44;4926796;28;128643;-69
2023/12/12 05:52:43;;;;;;;;;;;;;;;12.94;50.47;99897.16;4927130;28;100013;-66
2023/12/12 05:55:08;;;;;;;;;;;;;;;12.93;50.30;99900.13;4939047;28;98226;-70
2023/12/12 05:57:35;;;;;;;;;;;;;;;12.92;50.10;99910.16;4940386;28;98205;-69
2023/12/12 06:00:02;;;;;;;;;;;;;;;12.92;50.19;99904.75;4941641;28;100222;-69
2023/12/12 06:02:28;;;;;;;;;;;;;;;12.93;50.39;99913.66;4942206;28;98638;-70
2023/12/12 06:04:54;;;;;;;;;;;;;;;12.92;50.08;99915.56;4929868;28;98117;-69
2023/12/12 06:07:21;;;;;;;;;;;;;;;12.92;50.40;99914.75;4942821;28;127945;-69
2023/12/12 06:09:47;;;;;;;;;;;;;;;12.92;50.47;99912.06;4946214;28;98253;-69
2023/12/12 06:12:14;;;;;;;;;;;;;;;12.91;50.31;99919.38;4910892;28;130818;-69
2023/12/12 06:14:40;;;;;;;;;;;;;;;12.92;50.31;99914.75;4909262;28;97950;-69
2023/12/12 06:17:06;;;;;;;;;;;;;;;12.91;50.24;99911.25;4941318;28;97991;-69
2023/12/12 06:19:32;;;;;;;;;;;;;;;12.92;50.09;99912.06;4945022;28;98203;-66
2023/12/12 06:21:58;;;;;;;;;;;;;;;12.91;50.41;99911.25;4946732;28;98187;-66
2023/12/12 06:24:24;;;;;;;;;;;;;;;12.90;50.05;99920.47;4929133;28;101943;-69
2023/12/12 06:26:50;;;;;;;;;;;;;;;12.91;50.08;99918.56;4930818;28;98228;-65
2023/12/12 06:29:16;;;;;;;;;;;;;;;12.91;50.43;99915.88;4911020;28;98422;-69
2023/12/12 06:31:42;;;;;;;;;;;;;;;12.90;50.44;99920.47;4930001;28;104746;-69
2023/12/12 06:34:10;;;;;;;;;;;;;;;12.88;50.38;99917.25;4946744;28;97960;-69
2023/12/12 06:36:37;;;;;;;;;;;;;;;12.90;50.59;99925.91;4913119;28;98685;-65
2023/12/12 06:39:03;;;;;;;;;;;;;;;12.91;50.29;99932.09;4933277;28;98669;-69
2023/12/12 06:41:29;;;;;;;;;;;;;;;12.90;50.48;99936.72;4925384;28;98251;-66
2023/12/12 06:43:56;;;;;;;;;;;;;;;12.90;50.35;99933.22;4944616;28;98442;-69
2023/12/12 06:46:21;;;;;;;;;;;;;;;12.90;50.28;99935.91;4957975;28;98560;-65
2023/12/12 06:48:47;;;;;;;;;;;;;;;12.89;50.19;99943.22;4941242;28;113781;-65
2023/12/12 06:51:14;;;;;;;;;;;;;;;12.90;50.17;99944.81;4940783;28;114319;-69
2023/12/12 06:53:39;;;;;;;;;;;;;;;12.90;49.95;99942.13;4932355;27;98098;-65
2023/12/12 06:56:06;;;;;;;;;;;;;;;12.90;50.39;99934.00;4936600;28;130716;-65
2023/12/12 06:58:32;;;;;;;;;;;;;;;12.90;50.38;99942.13;4926537;28;98821;-70
2023/12/12 07:00:58;;;;;;;;;;;;;;;12.91;50.38;99929.41;4933634;28;98430;-65
2023/12/12 07:03:24;;;;;;;;;;;;;;;12.91;50.40;99937.50;4906017;28;98269;-69
2023/12/12 07:05:53;;;;;;;;;;;;;;;12.91;50.47;99934.81;4934450;28;119176;-65
2023/12/12 07:08:19;;;;;;;;;;;;;;;12.90;50.16;99944.81;4930135;28;98261;-69
2023/12/12 07:10:46;;;;;;;;;;;;;;;12.91;50.42;99940.22;4904969;28;98179;-70
2023/12/12 07:13:12;;;;;;;;;;;;;;;12.90;50.02;99941.31;4930714;28;98968;-66
2023/12/12 07:15:38;;;;;;;;;;;;;;;12.91;50.40;99945.63;4928430;28;106825;-65
2023/12/12 07:18:12;;;;;;;;;;;;;;;12.91;50.38;99945.63;4926099;28;127804;-69
2023/12/12 07:20:38;;;;;;;;;;;;;;;12.91;50.05;99954.53;4930603;28;98856;-65
2023/12/12 07:23:04;;;;;;;;;;;;;;;12.93;50.00;99948.81;4928927;28;98540;-69
2023/12/12 07:25:30;;;;;;;;;;;;;;;12.94;50.37;99953.16;4925700;28;98262;-65
2023/12/12 07:27:56;;;;;;;;;;;;;;;12.93;50.32;99946.13;4924361;28;106903;-69
2023/12/12 07:30:22;;;;;;;;;;;;;;;12.95;50.40;99957.47;4931578;28;103099;-69
2023/12/12 07:32:48;;;;;;;;;;;;;;;12.96;50.10;99964.47;4957670;28;116954;-69
2023/12/12 07:35:16;;;;;;;;;;;;;;;12.97;50.13;99956.06;4940517;28;115085;-65
2023/12/12 07:37:42;;;;;;;;;;;;;;;12.98;50.01;99956.88;4924368;28;98127;-69
2023/12/12 07:40:08;;;;;;;;;;;;;;;12.98;50.25;99962.28;4944782;28;108654;-69
2023/12/12 07:42:34;;;;;;;;;;;;;;;13.01;50.01;99961.72;4941409;28;98443;-69
2023/12/12 07:45:02;;;;;;;;;;;;;;;13.03;50.13;99962.19;4935149;28;98038;-65
2023/12/12 07:47:27;;;;;;;;;;;;;;;13.02;50.39;99955.19;4943250;28;99707;-69
2023/12/12 07:49:55;;;;;;;;;;;;;;;13.05;49.95;99956.47;4957522;28;129430;-65
2023/12/12 07:52:21;;;;;;;;;;;;;;;13.10;49.88;99953.72;4943520;28;99765;-70
2023/12/12 07:54:47;;;;;;;;;;;;;;;13.14;49.96;99952.03;4928026;28;98727;-65
2023/12/12 07:57:13;;;;;;;;;;;;;;;13.16;49.99;99955.22;4921183;28;98277;-70
2023/12/12 07:59:38;;;;;;;;;;;;;;;13.19;49.79;99943.81;4945557;28;100055;-65
2023/12/12 08:02:05;;;;;;;;;;;;;;;13.23;49.79;99948.34;4939228;28;117765;-65
2023/12/12 08:04:31;;;;;;;;;;;;;;;13.26;49.91;99942.34;4953521;28;99363;-69
2023/12/12 08:06:57;;;;;;;;;;;;;;;13.34;49.76;99950.91;4909129;28;99780;-65
2023/12/12 08:09:23;;;;;;;;;;;;;;;13.37;49.79;99944.88;4920814;28;98081;-65
2023/12/12 08:11:49;;;;;;;;;;;;;;;13.39;49.76;99946.19;4939244;28;98240;-65
2023/12/12 08:14:15;;;;;;;;;;;;;;;13.45;49.69;99955.81;4924066;28;127637;-69
2023/12/12 08:16:41;;;;;;;;;;;;;;;13.47;49.67;99950.91;4943708;28;116189;-70
2023/12/12 08:19:07;;;;;;;;;;;;;;;13.50;49.99;99952.22;4927071;28;98078;-65
2023/12/12 08:21:34;;;;;;;;;;;;;;;13.50;49.71;99953.03;4945383;28;98068;-69
2023/12/12 08:24:00;;;;;;;;;;;;;;;13.51;50.13;99949.19;4954163;28;98484;-66
2023/12/12 08:26:27;;;;;;;;;;;;;;;13.53;49.73;99953.53;4955429;28;109770;-65
2023/12/12 08:28:54;;;;;;;;;;;;;;;13.52;49.67;99952.75;4942210;28;98995;-69
2023/12/12 08:31:20;;;;;;;;;;;;;;;13.54;49.84;99952.44;4944943;28;98138;-69
2023/12/12 08:33:46;;;;;;;;;;;;;;;13.61;49.74;99948.22;4927956;28;98438;-70
2023/12/12 08:36:12;;;;;;;;;;;;;;;13.68;49.88;99959.47;4943359;28;100116;-65
2023/12/12 08:38:38;;;;;;;;;;;;;;;13.74;49.58;99952.03;4956123;28;99294;-65
2023/12/12 08:41:04;;;;;;;;;;;;;;;13.82;49.69;99955.94;4928160;28;98332;-69
2023/12/12 08:43:30;;;;;;;;;;;;;;;13.87;49.50;99953.97;4943853;28;99971;-69
2023/12/12 08:45:56;;;;;;;;;;;;;;;13.91;49.56;99954.13;4903586;28;98238;-65
2023/12/12 08:48:23;;;;;;;;;;;;;;;13.93;49.63;99949.22;4939841;28;98197;-69
2023/12/12 08:50:50;;;;;;;;;;;;;;;14.00;49.89;99955.06;4912437;28;98705;-69
2023/12/12 08:53:16;;;;;;;;;;;;;;;14.05;49.88;99959.56;4944944;28;100116;-70
2023/12/12 08:55:42;;;;;;;;;;;;;;;14.09;49.68;99952.44;4945631;28;98255;-65
2023/12/12 08:58:10;;;;;;;;;;;;;;;14.13;49.69;99948.00;4937218;28;98005;-66
2023/12/12 09:00:37;;;;;;;;;;;;;;;14.17;49.54;99952.53;4940072;28;99697;-65
2023/12/12 09:03:03;;;;;;;;;;;;;;;14.21;49.77;99953.50;4926771;28;98203;-69
2023/12/12 09:05:29;;;;;;;;;;;;;;;14.22;49.51;99951.59;4923139;28;114054;-65
2023/12/12 09:07:55;;;;;;;;;;;;;;;14.20;49.87;99953.84;4945415;28;99618;-69
2023/12/12 09:10:21;;;;;;;;;;;;;;;14.19;49.87;99958.44;4932219;28;98236;-69
2023/12/12 09:12:47;;;;;;;;;;;;;;;14.19;49.52;99961.16;4945262;28;98414;-69
2023/12/12 09:15:13;;;;;;;;;;;;;;;14.20;49.72;99962.75;4926722;28;98068;-69
2023/12/12 09:17:39;;;;;;;;;;;;;;;14.19;49.85;99961.16;4938203;28;98249;-69
2023/12/12 09:20:06;;;;;;;;;;;;;;;14.20;49.66;99959.25;4940994;28;98145;-65
2023/12/12 09:22:32;;;;;;;;;;;;;;;14.22;49.83;99960.53;4953699;28;98329;-69
2023/12/12 09:24:58;;;;;;;;;;;;;;;14.24;49.88;99962.97;4901859;28;99254;-69
2023/12/12 09:27:24;;;;;;;;;;;;;;;14.25;49.73;99964.56;4925681;28;98104;-66
2023/12/12 09:29:50;;;;;;;;;;;;;;;14.25;49.78;99959.94;4957050;28;102414;-69
2023/12/12 09:32:16;;;;;;;;;;;;;;;14.28;49.97;99961.25;4945492;28;98035;-65
2023/12/12 09:34:42;;;;;;;;;;;;;;;14.33;49.71;99960.31;4943592;28;98297;-65
2023/12/12 09:37:08;;;;;;;;;;;;;;;14.34;49.57;99964.63;4927228;28;99018;-65
2023/12/12 09:39:34;;;;;;;;;;;;;;;14.28;49.76;99961.25;4924315;28;100867;-69
2023/12/12 09:42:00;;;;;;;;;;;;;;;14.34;49.66;99961.94;4943889;28;110613;-65
2023/12/12 09:44:29;;;;;;;;;;;;;;;14.39;49.82;99959.91;4938887;28;99384;-66
2023/12/12 09:46:55;;;;;;;;;;;;;;;14.42;49.61;99955.78;4955106;28;99903;-65
2023/12/12 09:49:21;;;;;;;;;;;;;;;14.45;49.94;99957.88;4927956;28;98257;-70
2023/12/12 09:51:48;;;;;;;;;;;;;;;14.50;49.84;99955.09;4945473;28;98137;-70
2023/12/12 09:54:14;;;;;;;;;;;;;;;14.55;49.67;99959.63;4926287;28;98457;-65
2023/12/12 09:56:40;;;;;;;;;;;;;;;14.60;49.47;99970.34;4953858;28;98307;-70
2023/12/12 09:59:06;;;;;;;;;;;;;;;14.61;49.81;99953.75;4958443;28;97933;-65
2023/12/12 10:01:34;;;;;;;;;;;;;;;14.64;49.77;99955.06;4946187;28;98832;-65
2023/12/12 10:04:01;;;;;;;;;;;;;;;14.68;49.56;99951.41;4926602;28;98495;-70
2023/12/12 10:06:28;;;;;;;;;;;;;;;14.72;49.56;99944.28;4926337;28;98461;-70
2023/12/12 10:08:54;;;;;;;;;;;;;;;14.80;49.43;99947.38;4943059;28;98630;-65
2023/12/12 10:11:19;;;;;;;;;;;;;;;14.83;49.53;99933.19;4953928;28;127730;-65
2023/12/12 10:13:50;;;;;;;;;;;;;;;14.84;49.63;99942.94;4927241;28;131659;-65
2023/12/12 10:16:16;;;;;;;;;;;;;;;14.88;49.62;99946.63;4924441;28;99379;-65
2023/12/12 10:18:46;;;;;;;;;;;;;;;14.93;49.54;99932.94;4929542;28;98364;-70
2023/12/12 10:21:19;;;;;;;;;;;;;;;14.95;49.55;99933.44;4931817;28;98087;-70
2023/12/12 10:23:46;;;;;;;;;;;;;;;14.98;49.45;99927.41;4937108;28;99520;-65
2023/12/12 10:26:13;;;;;;;;;;;;;;;14.97;49.57;99926.59;4944547;28;98039;-70
2023/12/12 10:28:40;;;;;;;;;;;;;;;15.00;49.67;99925.16;4930562;28;98256;-70
2023/12/12 10:31:07;;;;;;;;;;;;;;;14.93;49.45;99931.03;4944125;28;99416;-70
2023/12/12 10:33:34;;;;;;;;;;;;;;;14.91;49.75;99925.09;4941207;28;97926;-70
2023/12/12 10:36:03;;;;;;;;;;;;;;;14.94;49.70;99927.22;4943331;28;98900;-70
2023/12/12 10:38:30;;;;;;;;;;;;;;;14.88;49.75;99916.78;4930177;28;98070;-66
2023/12/12 10:41:12;;;;;;;;;;;;;;;14.85;49.93;99922.81;4951251;28;98311;-70
2023/12/12 10:43:41;;;;;;;;;;;;;;;14.79;49.71;99924.88;4927920;28;98176;-65
2023/12/12 10:46:12;;;;;;;;;;;;;;;14.70;49.89;99913.97;4940058;28;98201;-65
2023/12/12 10:48:42;;;;;;;;;;;;;;;14.64;50.28;99917.88;4947502;28;98533;-70
2023/12/12 10:51:09;;;;;;;;;;;;;;;14.58;50.08;99912.88;4949207;28;99490;-65
2023/12/12 10:53:35;;;;;;;;;;;;;;;14.56;50.22;99913.19;4953045;28;98395;-65
2023/12/12 10:56:02;;;;;;;;;;;;;;;14.56;49.81;99912.41;4921767;28;98324;-65
2023/12/12 10:58:28;;;;;;;;;;;;;;;14.54;50.10;99907.28;4946229;28;98101;-70
2023/12/12 11:00:55;;;;;;;;;;;;;;;14.54;50.40;99903.75;4937906;28;111582;-65
2023/12/12 11:03:21;;;;;;;;;;;;;;;14.51;49.84;99894.34;4930384;28;101177;-65
2023/12/12 11:05:47;;;;;;;;;;;;;;;14.50;50.16;99895.44;4945218;28;98934;-65
2023/12/12 11:08:13;;;;;;;;;;;;;;;14.49;50.25;99899.25;4943430;28;103582;-70
2023/12/12 11:10:39;;;;;;;;;;;;;;;14.52;49.95;99889.72;4945423;28;126908;-65
2023/12/12 11:13:06;;;;;;;;;;;;;;;14.54;49.96;99888.31;4932649;27;113105;-65
2023/12/12 11:15:32;;;;;;;;;;;;;;;14.57;49.79;99889.59;4945118;28;98536;-69
2023/12/12 11:17:58;;;;;;;;;;;;;;;14.61;50.03;99883.22;4922373;28;98232;-65
2023/12/12 11:20:24;;;;;;;;;;;;;;;14.62;49.79;99873.19;4937024;28;98535;-69
2023/12/12 11:22:53;;;;;;;;;;;;;;;14.61;49.80;99866.16;4924784;28;99842;-65
2023/12/12 11:25:20;;;;;;;;;;;;;;;14.62;50.02;99865.03;4943119;28;98597;-69
2023/12/12 11:27:53;;;;;;;;;;;;;;;14.66;49.86;99866.84;4910413;28;98114;-65
2023/12/12 11:30:20;;;;;;;;;;;;;;;14.79;49.68;99865.19;4925740;28;98183;-69
2023/12/12 11:32:46;;;;;;;;;;;;;;;14.95;49.51;99857.44;4956471;28;98751;-65
2023/12/12 11:35:29;;;;;;;;;;;;;;;15.10;49.45;99867.13;4901450;28;98206;-69
2023/12/12 11:37:56;;;;;;;;;;;;;;;15.27;49.21;99859.03;4943626;28;98363;-69
2023/12/12 11:40:25;;;;;;;;;;;;;;;15.42;49.30;99853.19;4921458;28;98663;-65
2023/12/12 11:42:52;;;;;;;;;;;;;;;15.57;49.25;99849.25;4930615;28;99175;-65
2023/12/12 11:45:31;;;;;;;;;;;;;;;15.71;49.25;99847.22;4943256;28;99020;-69
2023/12/12 11:47:59;;;;;;;;;;;;;;;15.82;49.08;99842.31;4930877;28;98012;-69
2023/12/12 11:50:25;;;;;;;;;;;;;;;15.83;49.15;99840.38;4924420;28;98479;-65
2023/12/12 11:52:51;;;;;;;;;;;;;;;15.84;49.07;99839.28;4945479;28;98281;-69
2023/12/12 11:55:23;;;;;;;;;;;;;;;15.82;49.19;99836.06;4957106;28;99165;-69
2023/12/12 11:57:49;;;;;;;;;;;;;;;15.73;49.42;99832.56;4927952;28;98446;-65
2023/12/12 12:00:17;;;;;;;;;;;;;;;15.68;49.63;99836.22;4914649;28;99427;-65
2023/12/12 12:02:43;;;;;;;;;;;;;;;15.60;49.52;99835.06;4950375;28;98760;-65
2023/12/12 12:05:09;;;;;;;;;;;;;;;15.51;49.86;99833.41;4924578;28;125750;-69
2023/12/12 12:07:38;;;;;;;;;;;;;;;15.49;49.64;99838.38;4941045;28;113792;-70
2023/12/12 12:10:05;;;;;;;;;;;;;;;15.45;49.78;99830.84;4948028;28;98074;-65
2023/12/12 12:12:31;;;;;;;;;;;;;;;15.47;49.57;99836.75;4923500;28;106289;-65
2023/12/12 12:15:07;;;;;;;;;;;;;;;15.50;49.63;99834.53;4903600;28;98056;-65
2023/12/12 12:17:37;;;;;;;;;;;;;;;15.51;49.51;99836.91;4956371;28;98285;-65
2023/12/12 12:20:04;;;;;;;;;;;;;;;15.55;49.68;99837.09;4927779;28;100162;-69
2023/12/12 12:22:30;;;;;;;;;;;;;;;15.56;49.57;99828.66;4944005;28;98255;-69
2023/12/12 12:24:56;;;;;;;;;;;;;;;15.59;49.61;99835.34;4932613;28;117507;-69
2023/12/12 12:27:22;;;;;;;;;;;;;;;15.60;49.45;99837.78;4924885;28;98195;-70
2023/12/12 12:30:06;;;;;;;;;;;;;;;15.60;49.48;99824.19;4916053;28;109899;-70
2023/12/12 12:32:35;;;;;;;;;;;;;;;15.61;49.54;99827.69;4935065;28;98024;-69
2023/12/12 12:35:10;;;;;;;;;;;;;;;15.60;49.52;99826.06;4934668;28;98092;-69
2023/12/12 12:37:37;;;;;;;;;;;;;;;15.59;49.52;99829.91;4929642;28;112808;-66
2023/12/12 12:40:07;;;;;;;;;;;;;;;15.57;49.66;99824.81;4941545;28;98184;-69